Accueil
METAR-TAF:

METAR-TAF

Aéroports :

St Athan, Pays de Galles

latitude: 51-24N, longitude: 003-26W, altitude: 50 m

Observation

Le bulletin a été fait il y a 1 heure et 13 minutes, à 01:50 UTC
Vent 5 kt de nord/nord-ouest
Température 14°C
Humidité 88%
Pression 1018 hPa
Visibilité 10 km ou plus

METAR: EGDX 170150Z AUTO 33005KT 9999 SCT050/// 14/12 Q1018

Heure: 04:03 (03:03 UTC)

Prévision

Le bulletin a été fait il y a 13 heures et 20 minutes, à 13:43 UTC
Prévision valable du 16 à 15 UTC au 16 à 24 UTC
Vent 15 kt de ouest
Visibilité 10 km ou plus
Nuages épars à une hauteur de 3500 ft

TAF: EGDX 161343Z 1615/1624 27015KT 9999 SCT035

Observations et prévisions météorologiques de plus de 4000 aéroports (messages METAR et TAF).

Les stations disponibles sont représentées par des disques jaunes et rouges sur la carte.

Passer la souris dessus pour voir le nom de la station.

Cliquer dessus pour voir les observations et prévisions météorologiques.

Pour changer de carte: cliquez sur les boutons verts avec une croix noire pour zoomer, sur le bouton vert avec un tiret pour effectuer un zoom arrière, ou sur les flèches vertes pour les cartes adjacentes.


METAR-TAF: